createdAt,value
2023-01-11T00:01:14.734Z,9.4
2023-01-11T00:03:20.461Z,9.4
2023-01-11T00:05:26.166Z,9.5
2023-01-11T00:07:34.979Z,9.5
2023-01-11T00:11:46.540Z,9.5
2023-01-11T00:12:50.982Z,9.6
2023-01-11T00:14:56.728Z,9.6
2023-01-11T00:17:02.426Z,9.6
2023-01-11T00:19:08.245Z,9.7
2023-01-11T00:21:16.965Z,9.6
2023-01-11T00:23:22.673Z,9.7
2023-01-11T00:25:28.423Z,9.7
2023-01-11T00:27:34.219Z,9.7
2023-01-11T00:29:39.943Z,9.7
2023-01-11T00:31:45.774Z,9.8
2023-01-11T00:33:51.492Z,9.8
2023-01-11T00:36:00.195Z,9.8
2023-01-11T00:38:05.925Z,9.8
2023-01-11T00:40:11.640Z,9.9
2023-01-11T00:42:17.373Z,9.9
2023-01-11T00:46:28.877Z,9.9
2023-01-11T00:48:34.541Z,9.9
2023-01-11T00:50:43.265Z,10
2023-01-11T00:52:49.003Z,10
2023-01-11T00:54:54.720Z,9.9
2023-01-11T00:57:00.441Z,10
2023-01-11T00:59:06.171Z,10
2023-01-11T01:03:17.620Z,10
2023-01-11T01:05:26.321Z,10
2023-01-11T01:07:32.057Z,10
2023-01-11T01:10:42.141Z,10
2023-01-11T01:12:47.885Z,10
2023-01-11T01:14:53.589Z,10.1
2023-01-11T01:16:59.349Z,10.1
2023-01-11T01:19:08.058Z,10.1
2023-01-11T01:21:13.810Z,10.1
2023-01-11T01:23:19.518Z,10.1
2023-01-11T01:25:25.308Z,10.1
2023-01-11T01:27:30.975Z,10.1
2023-01-11T01:29:36.706Z,10.1
2023-01-11T01:31:42.442Z,10.1
2023-01-11T01:33:51.153Z,10.1
2023-01-11T01:35:56.888Z,10.1
2023-01-11T01:38:02.621Z,10.2
2023-01-11T01:40:08.362Z,10.1
2023-01-11T01:42:14.090Z,10.2
2023-01-11T01:44:19.817Z,10.2
2023-01-11T01:46:25.585Z,10.2
2023-01-11T01:48:34.319Z,10.2
2023-01-11T01:50:40.012Z,10.3
2023-01-11T01:52:45.741Z,10.2
2023-01-11T01:54:51.481Z,10.3
2023-01-11T01:56:57.205Z,10.3
2023-01-11T02:03:17.403Z,10.3
2023-01-11T02:05:23.154Z,10.3
2023-01-11T02:07:28.899Z,10.4
2023-01-11T02:09:54.410Z,10.4
2023-01-11T02:12:00.151Z,10.4
2023-01-11T02:14:05.884Z,10.4
2023-01-11T02:16:14.728Z,10.4
2023-01-11T02:18:20.384Z,10.4
2023-01-11T02:20:26.092Z,10.4
2023-01-11T02:22:31.815Z,10.4
2023-01-11T02:24:37.578Z,10.5
2023-01-11T02:26:43.299Z,10.5
2023-01-11T02:28:49.068Z,10.5
2023-01-11T02:30:57.818Z,10.5
2023-01-11T02:33:03.527Z,10.5
2023-01-11T02:35:09.236Z,10.5
2023-01-11T02:37:14.987Z,10.6
2023-01-11T02:39:20.719Z,10.5
2023-01-11T02:41:26.465Z,10.5
2023-01-11T02:43:32.196Z,10.5
2023-01-11T02:45:40.922Z,10.5
2023-01-11T02:47:46.675Z,10.6
2023-01-11T02:49:52.422Z,10.6
2023-01-11T02:51:58.161Z,10.6
2023-01-11T02:54:03.910Z,10.6
2023-01-11T02:58:15.379Z,10.6
2023-01-11T03:00:24.147Z,10.6
2023-01-11T03:02:29.924Z,10.6
2023-01-11T03:04:35.626Z,10.6
2023-01-11T03:05:39.963Z,10.6
2023-01-11T03:07:45.744Z,10.6
2023-01-11T03:14:05.924Z,10.7
2023-01-11T03:18:17.428Z,10.7
2023-01-11T03:22:28.925Z,10.8
2023-01-11T03:24:34.693Z,10.8
2023-01-11T03:26:40.435Z,10.8
2023-01-11T03:30:54.910Z,10.9
2023-01-11T03:33:00.654Z,10.9
2023-01-11T03:35:06.404Z,10.9
2023-01-11T03:37:12.159Z,10.9
2023-01-11T03:39:17.924Z,10.9
2023-01-11T03:41:23.661Z,11
2023-01-11T03:43:32.391Z,11
2023-01-11T03:45:38.149Z,11
2023-01-11T03:47:43.885Z,11
2023-01-11T03:49:49.648Z,11.1
2023-01-11T03:51:55.403Z,11.1
2023-01-11T03:54:01.163Z,11.1
2023-01-11T03:56:06.904Z,11.1
2023-01-11T03:58:15.647Z,11.1
2023-01-11T04:03:31.516Z,11.2
2023-01-11T04:05:37.267Z,11.2
2023-01-11T04:07:43.021Z,11.1
2023-01-11T04:09:48.771Z,11.2
2023-01-11T04:11:57.509Z,11.2
2023-01-11T04:14:03.268Z,11.1
2023-01-11T04:16:09.084Z,11.2
2023-01-11T04:18:14.773Z,11.2
2023-01-11T04:20:20.540Z,11.2
2023-01-11T04:22:26.283Z,11.3
2023-01-11T04:24:32.033Z,11.2
2023-01-11T04:26:40.761Z,11.3
2023-01-11T04:28:46.538Z,11.3
2023-01-11T04:30:52.298Z,11.3
2023-01-11T04:32:58.061Z,11.2
2023-01-11T04:35:03.823Z,11.3
2023-01-11T04:37:09.570Z,11.2
2023-01-11T04:39:15.333Z,11.3
2023-01-11T04:41:24.081Z,11.2
2023-01-11T04:43:29.821Z,11.2
2023-01-11T04:45:35.642Z,11.2
2023-01-11T04:47:41.347Z,11.2
2023-01-11T04:49:47.135Z,11.2
2023-01-11T04:51:52.866Z,11.2
2023-01-11T04:53:58.644Z,11.2
2023-01-11T04:56:07.358Z,11.2
2023-01-11T04:58:13.126Z,11.2
2023-01-11T05:00:18.884Z,11.2
2023-01-11T05:01:23.364Z,11.3
2023-01-11T05:05:36.404Z,11.3
2023-01-11T05:07:42.091Z,11.3
2023-01-11T05:09:50.800Z,11.3
2023-01-11T05:11:56.573Z,11.3
2023-01-11T05:14:02.300Z,11.4
2023-01-11T05:16:08.111Z,11.4
2023-01-11T05:18:13.838Z,11.4
2023-01-11T05:20:19.594Z,11.4
2023-01-11T05:22:25.305Z,11.4
2023-01-11T05:26:39.793Z,11.4
2023-01-11T05:28:45.571Z,11.4
2023-01-11T05:30:51.331Z,11.3
2023-01-11T05:32:57.089Z,11.4
2023-01-11T05:37:08.587Z,11.4
2023-01-11T05:39:17.364Z,11.3
2023-01-11T05:41:23.131Z,11.4
2023-01-11T05:43:28.869Z,11.4
2023-01-11T05:45:34.765Z,11.4
2023-01-11T05:51:51.930Z,11.3
2023-01-11T05:56:06.423Z,11.3
2023-01-11T06:02:49.325Z,11.3
2023-01-11T06:04:55.561Z,11.3
2023-01-11T06:07:03.856Z,11.3
2023-01-11T06:09:09.503Z,11.3
2023-01-11T06:11:15.251Z,11.3
2023-01-11T06:13:21.001Z,11.3
2023-01-11T06:15:26.805Z,11.3
2023-01-11T06:17:32.534Z,11.2
2023-01-11T06:19:38.287Z,11.3
2023-01-11T06:25:58.565Z,11.2
2023-01-11T06:28:04.312Z,11.1
2023-01-11T06:30:10.052Z,11.2
2023-01-11T06:32:15.803Z,11.2
2023-01-11T06:36:30.335Z,11.1
2023-01-11T06:38:36.078Z,11.1
2023-01-11T06:40:41.835Z,11.2
2023-01-11T06:42:47.566Z,11.1
2023-01-11T06:44:53.346Z,11.1
2023-01-11T06:46:59.107Z,11.1
2023-01-11T06:49:04.879Z,11.1
2023-01-11T06:51:13.586Z,11.1
2023-01-11T06:53:19.341Z,11
2023-01-11T06:55:25.114Z,11.1
2023-01-11T06:58:35.227Z,11
2023-01-11T07:00:40.992Z,11.1
2023-01-11T07:02:46.729Z,11.1
2023-01-11T07:04:55.524Z,11.1
2023-01-11T07:07:01.259Z,11
2023-01-11T07:09:07.002Z,11
2023-01-11T07:13:18.531Z,11
2023-01-11T07:15:24.288Z,11
2023-01-11T07:17:30.030Z,10.9
2023-01-11T07:19:38.789Z,10.9
2023-01-11T07:21:44.512Z,10.9
2023-01-11T07:23:50.288Z,10.8
2023-01-11T07:25:56.088Z,10.8
2023-01-11T07:28:01.806Z,10.8
2023-01-11T07:30:09.778Z,10.8
2023-01-11T07:32:13.324Z,10.8
2023-01-11T07:34:22.055Z,10.7
2023-01-11T07:36:27.804Z,10.7
2023-01-11T07:38:33.545Z,10.7
2023-01-11T07:40:39.454Z,10.7
2023-01-11T07:42:45.062Z,10.6
2023-01-11T07:44:50.819Z,10.7
2023-01-11T07:46:56.631Z,10.7
2023-01-11T07:49:05.298Z,10.6
2023-01-11T07:51:11.073Z,10.6
2023-01-11T07:53:16.833Z,10.5
2023-01-11T07:54:21.181Z,10.5
2023-01-11T07:56:26.918Z,10.5
2023-01-11T07:58:32.674Z,10.5
2023-01-11T08:00:38.428Z,10.5
2023-01-11T08:02:47.216Z,10.5
2023-01-11T08:04:52.905Z,10.4
2023-01-11T08:06:58.669Z,10.5
2023-01-11T08:09:04.412Z,10.4
2023-01-11T08:11:10.209Z,10.4
2023-01-11T08:13:15.922Z,10.4
2023-01-11T08:15:23.579Z,10.3
2023-01-11T08:17:30.399Z,10.3
2023-01-11T08:19:36.141Z,10.3
2023-01-11T08:21:41.863Z,10.3
2023-01-11T08:23:47.613Z,10.3
2023-01-11T08:25:53.351Z,10.3
2023-01-11T08:27:59.559Z,10.2
2023-01-11T08:30:05.318Z,10.2
2023-01-11T08:34:20.059Z,10.2
2023-01-11T08:36:25.783Z,10.2
2023-01-11T08:38:31.553Z,10.2
2023-01-11T08:40:37.293Z,10.2
2023-01-11T08:42:43.029Z,10.2
2023-01-11T08:46:57.483Z,10.1
2023-01-11T08:49:03.221Z,10.1
2023-01-11T08:51:08.978Z,10
2023-01-11T08:52:13.334Z,10
2023-01-11T08:54:19.038Z,10.1
2023-01-11T08:56:24.780Z,10
2023-01-11T08:58:30.525Z,10
2023-01-11T09:00:39.252Z,10.1
2023-01-11T09:02:45.038Z,10
2023-01-11T09:04:50.695Z,10
2023-01-11T09:06:56.427Z,10
2023-01-11T09:09:02.167Z,10
2023-01-11T09:11:07.910Z,10
2023-01-11T09:13:13.629Z,10
2023-01-11T09:15:22.351Z,10
2023-01-11T09:17:28.089Z,10
2023-01-11T09:19:33.809Z,10
2023-01-11T09:21:39.544Z,10
2023-01-11T09:23:45.289Z,10
2023-01-11T09:25:51.000Z,9.9
2023-01-11T09:27:56.719Z,9.9
2023-01-11T09:30:05.588Z,9.9
2023-01-11T09:32:11.171Z,9.9
2023-01-11T09:34:16.907Z,9.9
2023-01-11T09:36:22.665Z,9.8
2023-01-11T09:38:28.379Z,9.8
2023-01-11T09:40:34.156Z,9.7
2023-01-11T09:42:39.882Z,9.7
2023-01-11T09:44:48.528Z,9.8
2023-01-11T09:46:54.301Z,9.7
2023-01-11T09:48:59.982Z,9.7
2023-01-11T09:53:37.031Z,9.6
2023-01-11T09:59:57.302Z,9.6
2023-01-11T10:04:08.953Z,9.6
2023-01-11T10:06:14.782Z,9.6
2023-01-11T10:18:23.221Z,9.9
2023-01-11T10:18:44.556Z,9.9
2023-01-11T10:20:58.191Z,9.9
2023-01-11T10:23:03.897Z,10.1
2023-01-11T10:27:18.364Z,10.4
2023-01-11T10:29:24.051Z,10.4
2023-01-11T10:31:29.926Z,10.4
2023-01-11T10:33:35.502Z,10.5
2023-01-11T10:35:41.222Z,10.6
2023-01-11T10:37:46.970Z,10.7
2023-01-11T10:39:52.664Z,10.8
2023-01-11T10:44:07.114Z,10.6
2023-01-11T10:46:12.834Z,10.7
2023-01-11T10:47:17.182Z,10.7
2023-01-11T10:49:22.945Z,10.7
2023-01-11T10:51:28.654Z,10.6
2023-01-11T10:53:34.407Z,10.7
2023-01-11T10:55:43.101Z,10.6
2023-01-11T10:58:00.241Z,10.6
2023-01-11T10:59:54.571Z,10.8
2023-01-11T11:02:00.390Z,10.8
2023-01-11T11:04:06.042Z,10.8
2023-01-11T11:10:27.788Z,10.6
2023-01-11T11:12:33.517Z,10.5
2023-01-11T11:14:39.250Z,10.5
2023-01-11T11:16:45.160Z,10.5
2023-01-11T11:18:50.724Z,10.5
2023-01-11T11:20:56.448Z,10.4
2023-01-11T11:23:02.221Z,10.4
2023-01-11T11:25:10.889Z,10.3
2023-01-11T11:27:16.707Z,10.3
2023-01-11T11:29:22.365Z,10.4
2023-01-11T11:31:28.129Z,10.5
2023-01-11T11:33:33.839Z,10.5
2023-01-11T11:35:39.579Z,10.5
2023-01-11T11:37:45.318Z,10.5
2023-01-11T11:39:53.994Z,10.5
2023-01-11T11:41:59.729Z,10.5
2023-01-11T11:44:05.491Z,10.6
2023-01-11T11:47:15.608Z,10.9
2023-01-11T11:51:27.109Z,11
2023-01-11T11:53:35.752Z,11
2023-01-11T11:57:47.207Z,11.1
2023-01-11T11:59:52.967Z,11.1
2023-01-11T12:01:58.765Z,11.3
2023-01-11T12:04:04.450Z,11.3
2023-01-11T12:06:10.190Z,11.3
2023-01-11T12:10:24.653Z,11.4
2023-01-11T12:14:36.131Z,11
2023-01-11T12:16:42.000Z,11.1
2023-01-11T12:18:47.642Z,11.3
2023-01-11T12:20:53.407Z,11.4
2023-01-11T12:25:07.859Z,11.6
2023-01-11T12:29:19.417Z,12
2023-01-11T12:31:25.170Z,12
2023-01-11T12:33:30.905Z,11.8
2023-01-11T12:35:36.675Z,11.6
2023-01-11T12:37:45.407Z,11.3
2023-01-11T12:39:51.162Z,11.3
2023-01-11T12:41:56.882Z,11.1
2023-01-11T12:43:01.255Z,11
2023-01-11T12:45:07.005Z,11
2023-01-11T12:47:12.768Z,11
2023-01-11T12:49:18.513Z,11
2023-01-11T12:51:27.240Z,11.1
2023-01-11T12:53:32.996Z,11.1
2023-01-11T12:55:38.741Z,10.9
2023-01-11T12:57:44.507Z,10.9
2023-01-11T12:59:50.304Z,10.9
2023-01-11T13:06:10.512Z,11.1
2023-01-11T13:08:16.286Z,11.1
2023-01-11T13:10:22.042Z,10.9
2023-01-11T13:12:27.765Z,10.9
2023-01-11T13:14:33.533Z,10.9
2023-01-11T13:16:39.415Z,11
2023-01-11T13:18:45.037Z,10.9
2023-01-11T13:21:01.339Z,10.9
2023-01-11T13:22:59.517Z,10.9
2023-01-11T13:27:11.059Z,10.9
2023-01-11T13:33:28.279Z,10.9
2023-01-11T13:37:42.739Z,11
2023-01-11T13:39:48.482Z,10.9
2023-01-11T13:42:19.770Z,10.9
2023-01-11T13:44:25.559Z,10.9
2023-01-11T13:46:31.404Z,10.8
2023-01-11T13:48:39.995Z,10.6
2023-01-11T13:50:45.758Z,10.5
2023-01-11T13:52:51.499Z,10.5
2023-01-11T13:54:57.263Z,10.5
2023-01-11T13:57:02.988Z,10.5
2023-01-11T13:59:08.712Z,10.5
2023-01-11T14:01:14.508Z,10.6
2023-01-11T14:03:23.213Z,10.7
2023-01-11T14:05:28.922Z,10.6
2023-01-11T14:07:34.669Z,10.7
2023-01-11T14:09:40.399Z,10.6
2023-01-11T14:11:46.137Z,10.6
2023-01-11T14:15:57.677Z,10.5
2023-01-11T14:18:06.358Z,10.5
2023-01-11T14:20:12.347Z,10.5
2023-01-11T14:22:17.823Z,10.5
2023-01-11T14:24:23.570Z,10.4
2023-01-11T14:26:29.310Z,10.4
2023-01-11T14:28:35.051Z,10.3
2023-01-11T14:30:40.770Z,10.3
2023-01-11T14:32:49.477Z,10.3
2023-01-11T14:34:55.203Z,10.3
2023-01-11T14:37:00.940Z,10.2
2023-01-11T14:38:05.388Z,10.2
2023-01-11T14:40:11.029Z,10.2
2023-01-11T14:42:30.004Z,10.1
2023-01-11T14:50:42.777Z,10.1
2023-01-11T14:52:48.525Z,10
2023-01-11T14:54:54.251Z,10
2023-01-11T14:57:00.088Z,10
2023-01-11T14:59:05.797Z,9.9
2023-01-11T15:01:14.608Z,10
2023-01-11T15:05:26.269Z,10
2023-01-11T15:07:32.081Z,9.9
2023-01-11T15:09:37.830Z,10
2023-01-11T15:11:43.556Z,9.9
2023-01-11T15:13:49.374Z,9.9
2023-01-11T15:15:58.251Z,9.9
2023-01-11T15:18:03.894Z,9.9
2023-01-11T15:20:09.721Z,9.9
2023-01-11T15:22:15.536Z,9.9
2023-01-11T15:24:21.247Z,9.9
2023-01-11T15:26:27.110Z,9.9
2023-01-11T15:28:32.916Z,9.8
2023-01-11T15:30:41.707Z,9.7
2023-01-11T15:32:47.422Z,9.7
2023-01-11T15:34:53.155Z,9.6
2023-01-11T15:35:57.625Z,9.6
2023-01-11T15:38:03.426Z,9.5
2023-01-11T15:40:09.253Z,9.5
2023-01-11T15:42:15.095Z,9.4
2023-01-11T15:44:23.848Z,9.4
2023-01-11T15:46:29.647Z,9.3
2023-01-11T15:50:41.172Z,9.3
2023-01-11T15:52:47.005Z,9.2
2023-01-11T15:54:52.815Z,9.3
2023-01-11T15:56:58.619Z,9.3
2023-01-11T15:59:07.398Z,9.3
2023-01-11T16:01:13.237Z,9.3
2023-01-11T16:03:19.010Z,9.3
2023-01-11T16:05:24.808Z,9.3
2023-01-11T16:07:30.635Z,9.3
2023-01-11T16:09:36.439Z,9.2
2023-01-11T16:11:42.250Z,9.2
2023-01-11T16:13:51.125Z,9.2
2023-01-11T16:15:57.019Z,9.2
2023-01-11T16:18:02.761Z,9.2
2023-01-11T16:20:08.465Z,9.2
2023-01-11T16:22:14.170Z,9.2
2023-01-11T16:24:19.972Z,9.2
2023-01-11T16:26:25.695Z,9.2
2023-01-11T16:28:34.591Z,9.2
2023-01-11T16:30:40.415Z,9.2
2023-01-11T16:32:46.207Z,9.2
2023-01-11T16:33:50.562Z,9.2
2023-01-11T16:38:02.105Z,9.3
2023-01-11T16:40:07.915Z,9.3
2023-01-11T16:44:23.324Z,9.5
2023-01-11T16:48:34.747Z,9.5
2023-01-11T16:50:40.469Z,9.5
2023-01-11T16:57:00.614Z,9.4
2023-01-11T17:05:23.473Z,9.4
2023-01-11T17:07:29.300Z,9.4
2023-01-11T17:09:35.120Z,9.4
2023-01-11T17:13:51.087Z,9.4
2023-01-11T17:18:02.515Z,9.5
2023-01-11T17:22:14.175Z,9.5
2023-01-11T17:24:19.878Z,9.5
2023-01-11T17:28:34.354Z,9.6
2023-01-11T17:30:40.197Z,9.6
2023-01-11T17:33:11.632Z,9.6
2023-01-11T17:35:17.435Z,9.5
2023-01-11T17:37:23.271Z,9.5
2023-01-11T17:39:32.134Z,9.6
2023-01-11T17:41:37.909Z,9.5
2023-01-11T17:43:43.622Z,9.6
2023-01-11T17:45:49.384Z,9.7
2023-01-11T17:47:55.021Z,9.7
2023-01-11T17:56:20.879Z,9.8
2023-01-11T18:00:32.332Z,9.7
2023-01-11T18:06:49.509Z,9.7
2023-01-11T18:13:09.758Z,9.8
2023-01-11T18:15:15.461Z,9.8
2023-01-11T18:17:21.291Z,9.8
2023-01-11T18:19:27.136Z,9.7
2023-01-11T18:23:41.536Z,9.7
2023-01-11T18:25:47.277Z,9.7
2023-01-11T18:27:52.996Z,9.7
2023-01-11T18:31:03.158Z,9.6
2023-01-11T18:33:08.802Z,9.7
2023-01-11T18:35:16.374Z,9.7
2023-01-11T18:37:23.240Z,9.8
2023-01-11T18:41:34.704Z,9.8
2023-01-11T18:43:40.467Z,9.8
2023-01-11T18:45:46.168Z,9.8
2023-01-11T18:47:51.883Z,9.8
2023-01-11T18:49:57.616Z,9.8
2023-01-11T18:52:06.298Z,9.8
2023-01-11T18:54:12.147Z,9.8
2023-01-11T18:56:17.885Z,9.7
2023-01-11T18:58:23.600Z,9.5
2023-01-11T19:00:29.324Z,9.5
2023-01-11T19:02:35.073Z,9.4
2023-01-11T19:04:40.855Z,9.4
2023-01-11T19:06:49.518Z,9.4
2023-01-11T19:11:00.944Z,9.3
2023-01-11T19:13:06.690Z,9.3
2023-01-11T19:15:12.429Z,9.2
2023-01-11T19:19:23.863Z,9.1
2023-01-11T19:21:32.564Z,9.1
2023-01-11T19:23:38.406Z,9.1
2023-01-11T19:25:44.215Z,9.1
2023-01-11T19:26:48.704Z,9.2
2023-01-11T19:28:54.481Z,9.1
2023-01-11T19:31:00.285Z,9.2
2023-01-11T19:33:05.951Z,9.2
2023-01-11T19:35:14.634Z,9.2
2023-01-11T19:37:20.366Z,9.2
2023-01-11T19:39:26.087Z,9.1
2023-01-11T19:49:57.964Z,8.9
2023-01-11T19:52:03.702Z,8.9
2023-01-11T19:54:09.432Z,9
2023-01-11T19:56:15.140Z,9
2023-01-11T20:00:26.767Z,8.9
2023-01-11T20:02:32.576Z,8.8
2023-01-11T20:04:41.394Z,8.8
2023-01-11T20:06:47.199Z,8.8
2023-01-11T20:08:53.039Z,8.8
2023-01-11T20:10:58.742Z,8.8
2023-01-11T20:13:04.567Z,8.7
2023-01-11T20:15:10.365Z,8.8
2023-01-11T20:17:16.196Z,8.7
2023-01-11T20:19:24.990Z,8.6
2023-01-11T20:21:30.777Z,8.6
2023-01-11T20:23:36.601Z,8.6
2023-01-11T20:24:41.054Z,8.6
2023-01-11T20:26:46.931Z,8.6
2023-01-11T20:28:52.677Z,8.6
2023-01-11T20:31:00.685Z,8.7
2023-01-11T20:33:07.248Z,8.6
2023-01-11T20:35:12.996Z,8.6
2023-01-11T20:39:24.636Z,8.6
2023-01-11T20:41:30.429Z,8.5
2023-01-11T20:43:36.246Z,8.5
2023-01-11T20:45:42.027Z,8.5
2023-01-11T20:49:56.751Z,8.4
2023-01-11T20:52:02.568Z,8.4
2023-01-11T20:56:14.165Z,8.4
2023-01-11T20:58:19.974Z,8.5
2023-01-11T21:00:25.678Z,8.5
2023-01-11T21:02:34.596Z,8.6
2023-01-11T21:04:40.349Z,8.5
2023-01-11T21:06:46.168Z,8.5
2023-01-11T21:08:51.973Z,8.5
2023-01-11T21:10:57.758Z,8.5
2023-01-11T21:13:03.574Z,8.5
2023-01-11T21:15:09.360Z,8.5
2023-01-11T21:17:18.215Z,8.4
2023-01-11T21:19:24.012Z,8.4
2023-01-11T21:21:29.837Z,8.5
2023-01-11T21:26:06.993Z,8.4
2023-01-11T21:28:12.795Z,8.5
2023-01-11T21:32:27.477Z,8.5
2023-01-11T21:36:39.068Z,8.6
2023-01-11T21:38:44.877Z,8.6
2023-01-11T21:40:50.686Z,8.5
2023-01-11T21:42:56.482Z,8.6
2023-01-11T21:45:05.339Z,8.5
2023-01-11T21:47:11.134Z,8.6
2023-01-11T21:49:16.984Z,8.5
2023-01-11T21:51:22.783Z,8.5
2023-01-11T21:53:28.646Z,8.5
2023-01-11T21:55:34.358Z,8.6
2023-01-11T21:57:40.193Z,8.5
2023-01-11T21:59:49.108Z,8.5
2023-01-11T22:01:54.876Z,8.5
2023-01-11T22:04:00.711Z,8.5
2023-01-11T22:06:06.483Z,8.5
2023-01-11T22:08:12.280Z,8.5
2023-01-11T22:10:18.084Z,8.6
2023-01-11T22:12:23.895Z,8.6
2023-01-11T22:14:32.766Z,8.6
2023-01-11T22:16:38.573Z,8.6
2023-01-11T22:18:44.295Z,8.6
2023-01-11T22:19:48.724Z,8.6
2023-01-11T22:21:54.527Z,8.6
2023-01-11T22:24:00.372Z,8.6
2023-01-11T22:26:06.159Z,8.6
2023-01-11T22:28:15.034Z,8.7
2023-01-11T22:38:44.096Z,8.8
2023-01-11T22:40:49.901Z,8.8
2023-01-11T22:42:58.817Z,8.7
2023-01-11T22:45:04.508Z,8.7
2023-01-11T22:47:10.304Z,8.7
2023-01-11T22:49:16.109Z,8.7
2023-01-11T22:51:21.903Z,8.7
2023-01-11T22:53:27.633Z,8.7
2023-01-11T22:55:33.454Z,8.7
2023-01-11T22:57:42.335Z,8.7
2023-01-11T22:59:48.141Z,8.7
2023-01-11T23:01:53.944Z,8.7
2023-01-11T23:03:59.886Z,8.8
2023-01-11T23:06:05.576Z,8.7
2023-01-11T23:08:11.392Z,8.8
2023-01-11T23:10:17.208Z,8.8
2023-01-11T23:12:27.718Z,8.8
2023-01-11T23:14:33.809Z,8.8
2023-01-11T23:16:39.302Z,8.8
2023-01-11T23:17:43.699Z,8.8
2023-01-11T23:19:49.411Z,8.8
2023-01-11T23:21:55.244Z,8.8
2023-01-11T23:24:01.072Z,8.9
2023-01-11T23:26:09.952Z,8.9
2023-01-11T23:28:15.763Z,8.8
2023-01-11T23:30:21.468Z,8.8
2023-01-11T23:32:27.328Z,8.9
2023-01-11T23:36:38.925Z,8.9
2023-01-11T23:38:44.736Z,8.9
2023-01-11T23:40:53.631Z,9
2023-01-11T23:42:59.442Z,9
2023-01-11T23:45:05.275Z,9
2023-01-11T23:49:16.917Z,9
2023-01-11T23:53:28.618Z,9
2023-01-11T23:59:48.971Z,9.1
